Buoy 21539

sailwx.info

Track history (hours):
 
Tides and Currents Weather Stations Pressure Air Temp Water Temp Dewpoint Dewpoint Depression Visibility Wind Speed Wind Dir Waves Ship Positions

Drifting buoy 21539

Last reported at 2014-Dec-21 09:10 UTC. Time now 2014-Dec-21 12:48 UTC.
Position N 49°17' E 177°01'.

Barometer 1011.0 mb
Water temperature 5.2 ° C

Date/timePositionNaut miles runAvg speedWind from/ knotsBaromVisibWave heightAir tempDewpointWater temp
2014-Dec-21 09:10N 49°17' E 177°01'0 0.0 1011.0 5.2
2014-Dec-21 06:10N 49°17' E 177°01'0 0.0 1008.2 5.2
2014-Dec-21 01:10N 49°17' E 177°01'0 0.0 1004.4 5.3
2014-Dec-20 20:10N 49°17' E 177°01'0 0.0 1001.9 5.2
2014-Dec-20 17:10N 49°17' E 177°01'0 0.0 999.7 5.2
2014-Dec-20 08:10N 49°17' E 177°01'0 0.0 993.9 5.2
2014-Dec-20 07:10N 49°17' E 177°01'0 0.0 993.2 5.2
2014-Dec-20 04:10N 49°17' E 177°01'0 0.0 990.0 5.2
2014-Dec-20 03:10N 49°17' E 177°01'0 0.0 988.8 5.2
2014-Dec-20 02:10N 49°17' E 177°01'2 0.5 987.4 5.2
2014-Dec-19 22:10N 49°18' E 176°58'0 0.0 985.2 5.2
2014-Dec-19 16:10N 49°18' E 176°58'0 0.0 981.7 5.3
2014-Dec-19 12:10N 49°18' E 176°58'0 0.1 980.6 5.3
2014-Dec-19 08:10N 49°18' E 176°58'0 0.0 978.7 5.3
2014-Dec-19 06:10N 49°18' E 176°58'1 0.2 977.8 5.4
2014-Dec-19 02:10N 49°17' E 176°58'2 0.3 973.7 5.4
2014-Dec-18 21:10N 49°17' E 176°55'0 0.0 967.5 5.4
2014-Dec-18 17:10N 49°17' E 176°55'0 0.0 963.2 5.4
2014-Dec-18 16:10N 49°17' E 176°55'0 0.0 964.4 5.3
2014-Dec-18 15:10N 49°17' E 176°55'6 0.9 966.2 5.4
2014-Dec-18 09:10N 49°17' E 176°47'0 0.0 973.9 5.3
2014-Dec-18 08:10N 49°17' E 176°47'0 0.0 976.3 5.4
2014-Dec-18 04:10N 49°17' E 176°47'0 0.0 985.3 5.5
2014-Dec-18 02:10N 49°17' E 176°47'0 0.0 989.7 5.5
2014-Dec-17 21:10N 49°17' E 176°47'0 0.0 1000.3 5.6
2014-Dec-17 16:10N 49°17' E 176°47'0 0.0 1003.1 5.5
2014-Dec-17 12:10N 49°17' E 176°47'0 0.0 1002.9 5.6
2014-Dec-17 02:10N 49°17' E 176°47'0 0.0 993.0 5.6
2014-Dec-17 01:10N 49°17' E 176°47'0 0.0 992.8 5.6
2014-Dec-17 00:10N 49°17' E 176°47'8 1.3 992.1 5.6
2014-Dec-16 18:10N 49°22' E 176°37'20 1.1 990.3 5.4
2014-Dec-15 23:10N 49°21' E 176°05'0 0.0 989.9 5.5
2014-Dec-15 22:10N 49°21' E 176°05'0 0.0 990.5 5.5
2014-Dec-15 17:10N 49°21' E 176°05'0 0.0 990.7 5.4
2014-Dec-15 16:10N 49°21' E 176°05'0 0.0 991.8 5.4
2014-Dec-15 14:10N 49°21' E 176°05'0 0.0 994.0 5.4
2014-Dec-15 13:10N 49°21' E 176°05'0 0.0 994.9 5.4
2014-Dec-15 08:10N 49°21' E 176°05'0 0.0 995.4 5.4
2014-Dec-15 03:10N 49°21' E 176°05'0 0.0 995.7 5.4
2014-Dec-15 01:10N 49°21' E 176°05'0 0.0 997.0 5.4
2014-Dec-15 00:10N 49°21' E 176°05'0 0.0 997.7 5.4
2014-Dec-14 23:10N 49°21' E 176°05'21 3.5 998.3 5.4
2014-Dec-14 17:10N 49°19' E 175°33'0 0.0 999.2 5.4
2014-Dec-14 16:10N 49°19' E 175°33'0 0.0 999.4 5.4
2014-Dec-14 15:10N 49°19' E 175°33'0 0.0 999.3 5.4
2014-Dec-14 13:10N 49°19' E 175°33'0 0.0 999.0 5.4
2014-Dec-14 03:10N 49°19' E 175°33'0 0.1 993.4 5.5
2014-Dec-14 01:10N 49°19' E 175°33'0 0.0 992.5 5.6
2014-Dec-14 00:10N 49°19' E 175°33'34 0.7 992.4 5.6
2014-Dec-12 02:10N 49°02' E 174°47'0 0.0 1013.8 5.6
2014-Dec-12 01:10N 49°02' E 174°47'0 0.0 1013.3 5.6
2014-Dec-11 23:10N 49°02' E 174°47'4 0.7 1012.4 5.6
2014-Dec-11 18:10N 49°01' E 174°43'0 0.0 1009.7 5.6
2014-Dec-11 16:10N 49°01' E 174°43'4 4.5 1008.3 5.6
2014-Dec-11 15:10N 48°58' E 174°38'   1008.0 5.5
Track history (hours):
 
Tides and Currents Weather Stations Pressure Air Temp Water Temp Dewpoint Dewpoint Depression Visibility Wind Speed Wind Dir Waves Ship Positions

Drifting buoy 21539

Last reported at 2014-Dec-21 09:10 UTC. Time now 2014-Dec-21 12:48 UTC.
Position N 49°17' E 177°01'.

Barometer 1011.0 mb
Water temperature 5.2 ° C

Date/timePositionNaut miles runAvg speedWind from/ knotsBaromVisibWave heightAir tempDewpointWater temp
2014-Dec-21 09:10N 49°17' E 177°01'0 0.0 1011.0 5.2
2014-Dec-21 06:10N 49°17' E 177°01'0 0.0 1008.2 5.2
2014-Dec-21 01:10N 49°17' E 177°01'0 0.0 1004.4 5.3
2014-Dec-20 20:10N 49°17' E 177°01'0 0.0 1001.9 5.2
2014-Dec-20 17:10N 49°17' E 177°01'0 0.0 999.7 5.2
2014-Dec-20 08:10N 49°17' E 177°01'0 0.0 993.9 5.2
2014-Dec-20 07:10N 49°17' E 177°01'0 0.0 993.2 5.2
2014-Dec-20 04:10N 49°17' E 177°01'0 0.0 990.0 5.2
2014-Dec-20 03:10N 49°17' E 177°01'0 0.0 988.8 5.2
2014-Dec-20 02:10N 49°17' E 177°01'2 0.5 987.4 5.2
2014-Dec-19 22:10N 49°18' E 176°58'0 0.0 985.2 5.2
2014-Dec-19 16:10N 49°18' E 176°58'0 0.0 981.7 5.3
2014-Dec-19 12:10N 49°18' E 176°58'0 0.1 980.6 5.3
2014-Dec-19 08:10N 49°18' E 176°58'0 0.0 978.7 5.3
2014-Dec-19 06:10N 49°18' E 176°58'1 0.2 977.8 5.4
2014-Dec-19 02:10N 49°17' E 176°58'2 0.3 973.7 5.4
2014-Dec-18 21:10N 49°17' E 176°55'0 0.0 967.5 5.4
2014-Dec-18 17:10N 49°17' E 176°55'0 0.0 963.2 5.4
2014-Dec-18 16:10N 49°17' E 176°55'0 0.0 964.4 5.3
2014-Dec-18 15:10N 49°17' E 176°55'6 0.9 966.2 5.4
2014-Dec-18 09:10N 49°17' E 176°47'0 0.0 973.9 5.3
2014-Dec-18 08:10N 49°17' E 176°47'0 0.0 976.3 5.4
2014-Dec-18 04:10N 49°17' E 176°47'0 0.0 985.3 5.5
2014-Dec-18 02:10N 49°17' E 176°47'0 0.0 989.7 5.5
2014-Dec-17 21:10N 49°17' E 176°47'0 0.0 1000.3 5.6
2014-Dec-17 16:10N 49°17' E 176°47'0 0.0 1003.1 5.5
2014-Dec-17 12:10N 49°17' E 176°47'0 0.0 1002.9 5.6
2014-Dec-17 02:10N 49°17' E 176°47'0 0.0 993.0 5.6
2014-Dec-17 01:10N 49°17' E 176°47'0 0.0 992.8 5.6
2014-Dec-17 00:10N 49°17' E 176°47'8 1.3 992.1 5.6
2014-Dec-16 18:10N 49°22' E 176°37'20 1.1 990.3 5.4
2014-Dec-15 23:10N 49°21' E 176°05'0 0.0 989.9 5.5
2014-Dec-15 22:10N 49°21' E 176°05'0 0.0 990.5 5.5
2014-Dec-15 17:10N 49°21' E 176°05'0 0.0 990.7 5.4
2014-Dec-15 16:10N 49°21' E 176°05'0 0.0 991.8 5.4
2014-Dec-15 14:10N 49°21' E 176°05'0 0.0 994.0 5.4
2014-Dec-15 13:10N 49°21' E 176°05'0 0.0 994.9 5.4
2014-Dec-15 08:10N 49°21' E 176°05'0 0.0 995.4 5.4
2014-Dec-15 03:10N 49°21' E 176°05'0 0.0 995.7 5.4
2014-Dec-15 01:10N 49°21' E 176°05'0 0.0 997.0 5.4
2014-Dec-15 00:10N 49°21' E 176°05'0 0.0 997.7 5.4
2014-Dec-14 23:10N 49°21' E 176°05'21 3.5 998.3 5.4
2014-Dec-14 17:10N 49°19' E 175°33'0 0.0 999.2 5.4
2014-Dec-14 16:10N 49°19' E 175°33'0 0.0 999.4 5.4
2014-Dec-14 15:10N 49°19' E 175°33'0 0.0 999.3 5.4
2014-Dec-14 13:10N 49°19' E 175°33'0 0.0 999.0 5.4
2014-Dec-14 03:10N 49°19' E 175°33'0 0.1 993.4 5.5
2014-Dec-14 01:10N 49°19' E 175°33'0 0.0 992.5 5.6
2014-Dec-14 00:10N 49°19' E 175°33'34 0.7 992.4 5.6
2014-Dec-12 02:10N 49°02' E 174°47'0 0.0 1013.8 5.6
2014-Dec-12 01:10N 49°02' E 174°47'0 0.0 1013.3 5.6
2014-Dec-11 23:10N 49°02' E 174°47'4 0.7 1012.4 5.6
2014-Dec-11 18:10N 49°01' E 174°43'0 0.0 1009.7 5.6
2014-Dec-11 16:10N 49°01' E 174°43'4 4.5 1008.3 5.6
2014-Dec-11 15:10N 48°58' E 174°38'   1008.0 5.5

Dump ship's entire track history